createdAt,value
2024-04-22T00:02:29.310Z,85.82
2024-04-22T00:07:31.098Z,85.85
2024-04-22T00:12:32.973Z,85.83
2024-04-22T00:17:35.513Z,85.62
2024-04-22T00:22:37.451Z,85.38
2024-04-22T00:27:39.200Z,85.40
2024-04-22T00:32:41.059Z,85.76
2024-04-22T00:37:42.995Z,85.30
2024-04-22T00:42:48.315Z,85.59
2024-04-22T00:47:50.611Z,85.24
2024-04-22T00:52:53.435Z,85.03
2024-04-22T00:57:58.397Z,85.52
2024-04-22T01:03:00.108Z,85.29
2024-04-22T01:08:02.487Z,85.73
2024-04-22T01:13:04.976Z,85.30
2024-04-22T01:18:07.029Z,85.61
2024-04-22T01:23:08.668Z,85.75
2024-04-22T01:28:10.468Z,85.70
2024-04-22T01:33:12.395Z,85.91
2024-04-22T01:38:14.116Z,85.94
2024-04-22T01:43:15.907Z,85.96
2024-04-22T01:48:17.751Z,85.98
2024-04-22T01:53:19.414Z,86.09
2024-04-22T01:58:21.183Z,85.77
2024-04-22T02:03:23.170Z,85.98
2024-04-22T02:08:24.884Z,86.13
2024-04-22T02:13:26.664Z,86.07
2024-04-22T02:18:28.654Z,86.03
2024-04-22T02:23:30.548Z,86.14
2024-04-22T02:28:32.322Z,86.03
2024-04-22T02:33:34.172Z,86.02
2024-04-22T02:38:36.010Z,85.78
2024-04-22T02:43:37.803Z,85.94
2024-04-22T02:48:39.697Z,86.08
2024-04-22T02:53:41.569Z,86.26
2024-04-22T02:58:46.340Z,86.07
2024-04-22T03:03:48.159Z,86.26
2024-04-22T03:08:51.631Z,86.29
2024-04-22T03:13:53.504Z,86.29
2024-04-22T03:18:55.256Z,86.04
2024-04-22T03:23:56.997Z,86.03
2024-04-22T03:28:58.793Z,86.16
2024-04-22T03:34:00.880Z,86.17
2024-04-22T03:39:02.549Z,86.12
2024-04-22T03:44:04.436Z,86.02
2024-04-22T03:49:24.988Z,86.07
2024-04-22T03:54:26.673Z,85.65
2024-04-22T03:59:28.516Z,85.59
2024-04-22T04:04:30.379Z,85.47
2024-04-22T04:09:32.271Z,85.43
2024-04-22T04:14:34.032Z,85.38
2024-04-22T04:19:35.950Z,85.50
2024-04-22T04:24:37.823Z,85.27
2024-04-22T04:29:39.571Z,85.04
2024-04-22T04:34:43.581Z,85.08
2024-04-22T04:39:45.332Z,84.97
2024-04-22T04:44:47.021Z,84.93
2024-04-22T04:49:48.961Z,85.19
2024-04-22T04:54:53.141Z,84.80
2024-04-22T04:59:55.220Z,84.47
2024-04-22T05:04:56.963Z,84.35
2024-04-22T05:09:58.725Z,84.21
2024-04-22T05:15:01.612Z,84.10
2024-04-22T05:20:03.630Z,83.71
2024-04-22T05:25:05.479Z,83.47
2024-04-22T05:30:07.596Z,83.48
2024-04-22T05:35:28.180Z,83.14
2024-04-22T05:40:30.641Z,83.21
2024-04-22T05:45:33.901Z,82.90
2024-04-22T05:50:35.667Z,82.44
2024-04-22T05:55:37.468Z,82.07
2024-04-22T06:00:39.328Z,81.95
2024-04-22T06:05:41.290Z,82.10
2024-04-22T06:10:47.191Z,81.81
2024-04-22T06:15:49.090Z,81.25
2024-04-22T06:20:50.888Z,81.11
2024-04-22T06:25:52.663Z,81.00
2024-04-22T06:30:54.381Z,81.07
2024-04-22T06:35:56.946Z,80.36
2024-04-22T06:40:58.654Z,79.93
2024-04-22T06:46:00.443Z,80.04
2024-04-22T06:51:02.210Z,79.49
2024-04-22T06:56:04.211Z,79.38
2024-04-22T07:01:05.864Z,78.94
2024-04-22T07:06:11.218Z,78.78
2024-04-22T07:11:12.981Z,77.98
2024-04-22T07:16:15.224Z,77.35
2024-04-22T07:21:17.182Z,77.11
2024-04-22T07:26:19.011Z,76.64
2024-04-22T07:31:21.080Z,76.08
2024-04-22T07:36:32.120Z,74.85
2024-04-22T07:41:34.229Z,73.68
2024-04-22T07:46:36.266Z,73.11
2024-04-22T07:51:38.868Z,72.17
2024-04-22T07:56:41.012Z,71.58
2024-04-22T08:01:43.094Z,71.26
2024-04-22T08:06:45.671Z,70.83
2024-04-22T08:11:47.486Z,70.59
2024-04-22T08:16:49.334Z,69.82
2024-04-22T08:21:51.208Z,69.02
2024-04-22T08:26:57.149Z,69.08
2024-04-22T08:31:58.874Z,68.93
2024-04-22T08:37:00.634Z,68.58
2024-04-22T08:42:10.787Z,68.31
2024-04-22T08:47:12.514Z,68.52
2024-04-22T08:52:16.453Z,67.65
2024-04-22T08:57:18.726Z,66.66
2024-04-22T09:02:21.766Z,66.29
2024-04-22T09:07:23.531Z,65.78
2024-04-22T09:12:25.561Z,64.99
2024-04-22T09:17:27.916Z,64.95
2024-04-22T09:22:31.398Z,63.89
2024-04-22T09:27:33.473Z,63.67
2024-04-22T09:32:36.783Z,63.97
2024-04-22T09:37:39.942Z,64.47
2024-04-22T09:42:43.504Z,63.24
2024-04-22T09:47:47.650Z,63.21
2024-04-22T09:52:51.043Z,63.69
2024-04-22T09:58:01.795Z,63.18
2024-04-22T10:03:06.923Z,62.85
2024-04-22T10:08:09.062Z,62.07
2024-04-22T10:13:12.400Z,61.91
2024-04-22T10:18:16.618Z,61.66
2024-04-22T10:23:18.551Z,60.01
2024-04-22T10:28:20.461Z,60.85
2024-04-22T10:33:22.204Z,61.10
2024-04-22T10:38:23.902Z,60.00
2024-04-22T10:43:25.799Z,60.11
2024-04-22T10:48:28.092Z,60.08
2024-04-22T10:53:29.913Z,59.95
2024-04-22T10:58:31.663Z,59.58
2024-04-22T11:03:33.662Z,59.72
2024-04-22T11:08:36.682Z,59.64
2024-04-22T11:13:39.092Z,59.07
2024-04-22T11:18:40.913Z,58.21
2024-04-22T11:23:43.238Z,58.71
2024-04-22T11:28:46.702Z,58.21
2024-04-22T11:33:48.586Z,58.46
2024-04-22T11:38:51.594Z,57.74
2024-04-22T11:43:54.499Z,57.48
2024-04-22T11:48:56.223Z,57.33
2024-04-22T11:53:58.198Z,56.84
2024-04-22T11:59:00.782Z,56.95
2024-04-22T12:04:02.945Z,56.75
2024-04-22T12:09:06.726Z,56.77
2024-04-22T12:14:09.986Z,56.25
2024-04-22T12:19:11.613Z,55.71
2024-04-22T12:24:13.372Z,55.50
2024-04-22T12:29:15.117Z,54.55
2024-04-22T12:34:17.127Z,54.72
2024-04-22T12:39:20.692Z,54.63
2024-04-22T12:44:22.425Z,55.06
2024-04-22T12:49:42.921Z,55.27
2024-04-22T12:54:44.733Z,54.73
2024-04-22T12:59:46.493Z,54.92
2024-04-22T13:04:48.236Z,55.46
2024-04-22T13:09:49.999Z,54.79
2024-04-22T13:14:53.618Z,54.12
2024-04-22T13:19:55.421Z,54.20
2024-04-22T13:24:57.307Z,54.63
2024-04-22T13:30:03.047Z,55.50
2024-04-22T13:35:05.456Z,55.15
2024-04-22T13:40:08.961Z,55.03
2024-04-22T13:45:10.669Z,54.55
2024-04-22T13:50:12.590Z,54.46
2024-04-22T13:55:14.703Z,55.42
2024-04-22T14:00:16.663Z,55.66
2024-04-22T14:05:18.589Z,55.33
2024-04-22T14:10:20.433Z,55.43
2024-04-22T14:15:27.649Z,55.83
2024-04-22T14:20:39.081Z,54.93
2024-04-22T14:25:40.834Z,54.94
2024-04-22T14:30:42.626Z,55.33
2024-04-22T14:35:44.340Z,55.56
2024-04-22T14:40:46.123Z,55.80
2024-04-22T14:45:47.979Z,55.95
2024-04-22T14:50:53.371Z,56.33
2024-04-22T14:55:55.036Z,55.76
2024-04-22T15:00:56.861Z,55.26
2024-04-22T15:05:58.668Z,55.48
2024-04-22T15:11:03.999Z,56.06
2024-04-22T15:16:08.040Z,55.62
2024-04-22T15:21:09.961Z,55.63
2024-04-22T15:26:11.907Z,56.02
2024-04-22T15:31:13.640Z,56.50
2024-04-22T15:36:17.382Z,55.83
2024-04-22T15:41:19.164Z,55.70
2024-04-22T15:46:20.946Z,55.32
2024-04-22T15:51:23.882Z,55.51
2024-04-22T15:56:25.660Z,56.08
2024-04-22T16:01:27.499Z,55.64
2024-04-22T16:06:29.240Z,56.25
2024-04-22T16:11:32.975Z,55.88
2024-04-22T16:16:36.572Z,56.07
2024-04-22T16:21:38.386Z,56.67
2024-04-22T16:26:40.137Z,56.54
2024-04-22T16:31:42.510Z,56.69
2024-04-22T16:36:45.312Z,57.45
2024-04-22T16:41:47.064Z,57.41
2024-04-22T16:46:48.817Z,58.09
2024-04-22T16:51:50.608Z,58.10
2024-04-22T16:56:52.235Z,58.37
2024-04-22T17:01:53.986Z,58.47
2024-04-22T17:06:55.936Z,58.73
2024-04-22T17:11:57.753Z,58.98
2024-04-22T17:17:01.748Z,58.96
2024-04-22T17:22:05.184Z,59.18
2024-04-22T17:27:06.952Z,59.19
2024-04-22T17:32:08.781Z,59.57
2024-04-22T17:37:12.484Z,59.88
2024-04-22T17:42:14.427Z,59.92
2024-04-22T17:47:16.214Z,60.40
2024-04-22T17:52:17.993Z,60.71
2024-04-22T17:57:19.742Z,61.10
2024-04-22T18:02:21.540Z,61.64
2024-04-22T18:07:23.387Z,61.72
2024-04-22T18:12:25.102Z,62.03
2024-04-22T18:17:27.424Z,62.52
2024-04-22T18:22:32.370Z,62.77
2024-04-22T18:27:40.169Z,63.18
2024-04-22T18:32:43.490Z,63.58
2024-04-22T18:37:45.276Z,63.81
2024-04-22T18:42:47.011Z,64.17
2024-04-22T18:47:48.854Z,64.49
2024-04-22T18:52:50.776Z,64.83
2024-04-22T18:57:52.735Z,64.96
2024-04-22T19:02:55.185Z,64.94
2024-04-22T19:07:57.032Z,65.31
2024-04-22T19:12:58.994Z,65.41
2024-04-22T19:18:00.929Z,65.44
2024-04-22T19:23:02.884Z,65.52
2024-04-22T19:28:04.924Z,65.59
2024-04-22T19:33:07.663Z,65.89
2024-04-22T19:38:09.414Z,65.87
2024-04-22T19:43:11.141Z,66.11
2024-04-22T19:48:13.226Z,66.18
2024-04-22T19:53:15.208Z,66.20
2024-04-22T19:58:17.052Z,66.38
2024-04-22T20:03:18.776Z,66.62
2024-04-22T20:08:21.441Z,66.97
2024-04-22T20:13:23.261Z,67.39
2024-04-22T20:18:40.538Z,67.69
2024-04-22T20:23:42.286Z,68.45
2024-04-22T20:28:44.086Z,68.62
2024-04-22T20:33:46.280Z,69.12
2024-04-22T20:38:48.125Z,69.29
2024-04-22T20:43:49.912Z,69.86
2024-04-22T20:48:51.751Z,70.14
2024-04-22T20:53:53.473Z,70.55
2024-04-22T20:58:56.441Z,70.73
2024-04-22T21:03:58.250Z,71.13
2024-04-22T21:09:04.088Z,71.58
2024-04-22T21:14:06.079Z,71.63
2024-04-22T21:19:15.064Z,72.22
2024-04-22T21:24:21.896Z,72.23
2024-04-22T21:29:23.788Z,72.44
2024-04-22T21:34:25.722Z,72.58
2024-04-22T21:39:27.679Z,72.79
2024-04-22T21:44:30.161Z,72.98
2024-04-22T21:49:32.076Z,73.23
2024-04-22T21:54:33.759Z,73.33
2024-04-22T22:00:13.143Z,73.67
2024-04-22T22:05:52.673Z,73.90
2024-04-22T22:16:15.930Z,74.36
2024-04-22T22:21:17.826Z,74.72
2024-04-22T22:26:19.521Z,74.81
2024-04-22T22:31:21.314Z,75.17
2024-04-22T22:36:23.137Z,75.31
2024-04-22T22:41:24.792Z,75.35
2024-04-22T22:46:26.463Z,75.45
2024-04-22T22:51:28.137Z,75.89
2024-04-22T22:56:29.826Z,75.87
2024-04-22T23:01:31.517Z,75.97
2024-04-22T23:06:33.442Z,76.22
2024-04-22T23:11:35.163Z,76.38
2024-04-22T23:16:37.370Z,76.32
2024-04-22T23:21:39.067Z,76.69
2024-04-22T23:26:52.089Z,76.76
2024-04-22T23:31:53.827Z,77.12
2024-04-22T23:36:55.600Z,76.91
2024-04-22T23:41:57.288Z,77.24
2024-04-22T23:46:59.236Z,77.43
2024-04-22T23:52:01.097Z,77.11
2024-04-22T23:57:03.984Z,77.48
